createdAt,value
2022-07-27T00:00:09.019Z,99261.59
2022-07-27T00:01:16.213Z,99260.59
2022-07-27T00:02:18.561Z,99263.25
2022-07-27T00:03:20.956Z,99258.91
2022-07-27T00:04:23.320Z,99263.91
2022-07-27T00:05:25.958Z,99263.38
2022-07-27T00:06:28.274Z,99266.22
2022-07-27T00:07:30.504Z,99262.84
2022-07-27T00:08:32.890Z,99262.84
2022-07-27T00:09:35.113Z,99261.56
2022-07-27T00:10:37.858Z,99257.97
2022-07-27T00:11:40.081Z,99259.84
2022-07-27T00:12:42.634Z,99265.72
2022-07-27T00:13:45.920Z,99269.19
2022-07-27T00:14:48.189Z,99259.75
2022-07-27T00:15:50.552Z,99266.22
2022-07-27T00:16:52.976Z,99258.28
2022-07-27T00:17:56.842Z,99272.16
2022-07-27T00:18:59.066Z,99271.56
2022-07-27T00:20:01.422Z,99281.28
2022-07-27T00:21:03.787Z,99280.03
2022-07-27T00:22:06.066Z,99272.50
2022-07-27T00:23:08.737Z,99272.16
2022-07-27T00:24:11.022Z,99274.63
2022-07-27T00:25:13.272Z,99278.22
2022-07-27T00:26:18.739Z,99271.53
2022-07-27T00:27:20.991Z,99282.16
2022-07-27T00:28:23.241Z,99275.47
2022-07-27T00:29:25.646Z,99285.13
2022-07-27T00:30:28.695Z,99268.81
2022-07-27T00:31:31.059Z,99278.25
2022-07-27T00:32:33.346Z,99279.94
2022-07-27T00:33:35.704Z,99279.97
2022-07-27T00:34:38.297Z,99285.69
2022-07-27T00:35:40.574Z,99274.53
2022-07-27T00:36:42.834Z,99276.88
2022-07-27T00:37:45.158Z,99279.41
2022-07-27T00:38:47.406Z,99288.63
2022-07-27T00:39:49.616Z,99276.03
2022-07-27T00:40:51.896Z,99290.53
2022-07-27T00:41:54.112Z,99299.78
2022-07-27T00:42:56.413Z,99291.81
2022-07-27T00:44:00.429Z,99301.22
2022-07-27T00:45:04.075Z,99286.44
2022-07-27T00:46:06.343Z,99289.09
2022-07-27T00:47:08.601Z,99285.06
2022-07-27T00:48:11.119Z,99287.28
2022-07-27T00:49:13.655Z,99282.06
2022-07-27T00:50:16.100Z,99278.44
2022-07-27T00:51:20.284Z,99287.47
2022-07-27T00:52:23.259Z,99285.13
2022-07-27T00:53:25.587Z,99282.72
2022-07-27T00:54:27.797Z,99278.03
2022-07-27T00:55:31.203Z,99279.44
2022-07-27T00:56:33.716Z,99276.88
2022-07-27T00:57:59.090Z,99288.13
2022-07-27T00:58:58.277Z,99276.16
2022-07-27T01:00:00.564Z,99273.91
2022-07-27T01:01:02.913Z,99273.91
2022-07-27T01:02:11.293Z,99278.47
2022-07-27T01:03:16.523Z,99277.63
2022-07-27T01:04:18.883Z,99281.56
2022-07-27T01:05:23.942Z,99283.47
2022-07-27T01:06:38.156Z,99278.69
2022-07-27T01:07:40.627Z,99279.63
2022-07-27T01:08:43.221Z,99280.03
2022-07-27T01:09:58.402Z,99283.41
2022-07-27T01:11:02.378Z,99277.66
2022-07-27T01:12:08.377Z,99279.59
2022-07-27T01:13:12.512Z,99276.00
2022-07-27T01:14:16.814Z,99271.00
2022-07-27T01:15:19.542Z,99278.22
2022-07-27T01:16:21.942Z,99274.28
2022-07-27T01:17:26.357Z,99276.91
2022-07-27T01:18:31.779Z,99280.19
2022-07-27T01:19:35.978Z,99281.34
2022-07-27T01:20:40.337Z,99279.41
2022-07-27T01:21:42.606Z,99270.19
2022-07-27T01:22:44.849Z,99281.41
2022-07-27T01:23:47.106Z,99275.38
2022-07-27T01:24:50.230Z,99274.00
2022-07-27T01:25:53.141Z,99270.94
2022-07-27T01:26:56.022Z,99272.88
2022-07-27T01:27:58.286Z,99268.53
2022-07-27T01:29:01.373Z,99270.78
2022-07-27T01:30:24.915Z,99262.41
2022-07-27T01:31:28.340Z,99262.00
2022-07-27T01:32:30.694Z,99267.63
2022-07-27T01:33:32.946Z,99267.19
2022-07-27T01:34:35.818Z,99272.81
2022-07-27T01:35:39.425Z,99269.06
2022-07-27T01:36:41.871Z,99258.31
2022-07-27T01:37:48.141Z,99263.34
2022-07-27T01:38:50.690Z,99260.16
2022-07-27T01:39:52.937Z,99261.13
2022-07-27T01:40:55.484Z,99265.19
2022-07-27T01:41:58.785Z,99267.19
2022-07-27T01:43:01.402Z,99264.00
2022-07-27T01:44:03.877Z,99258.81
2022-07-27T01:45:06.784Z,99263.16
2022-07-27T01:46:09.174Z,99259.22
2022-07-27T01:47:14.010Z,99256.25
2022-07-27T01:48:17.152Z,99250.09
2022-07-27T01:49:19.518Z,99250.28
2022-07-27T01:50:21.931Z,99246.59
2022-07-27T01:51:24.181Z,99249.13
2022-07-27T01:52:26.513Z,99245.44
2022-07-27T01:53:28.828Z,99250.72
2022-07-27T01:54:31.162Z,99248.72
2022-07-27T01:55:36.961Z,99238.22
2022-07-27T01:56:41.536Z,99234.91
2022-07-27T01:57:43.948Z,99236.47
2022-07-27T01:58:46.162Z,99240.09
2022-07-27T01:59:48.383Z,99243.50
2022-07-27T02:00:50.710Z,99235.78
2022-07-27T02:01:53.049Z,99236.09
2022-07-27T02:02:55.449Z,99228.44
2022-07-27T02:03:57.766Z,99235.81
2022-07-27T02:05:00.184Z,99234.56
2022-07-27T02:06:02.942Z,99237.06
2022-07-27T02:07:05.240Z,99224.69
2022-07-27T02:08:08.187Z,99235.19
2022-07-27T02:09:10.570Z,99230.38
2022-07-27T02:10:13.332Z,99223.06
2022-07-27T02:11:34.406Z,99226.38
2022-07-27T02:12:36.924Z,99230.09
2022-07-27T02:13:44.539Z,99236.56
2022-07-27T02:14:46.954Z,99244.50
2022-07-27T02:15:49.403Z,99234.28
2022-07-27T02:16:57.032Z,99238.50
2022-07-27T02:17:59.251Z,99244.00
2022-07-27T02:19:04.747Z,99230.84
2022-07-27T02:20:09.926Z,99241.84
2022-07-27T02:21:12.326Z,99235.78
2022-07-27T02:22:14.607Z,99230.22
2022-07-27T02:23:16.901Z,99225.44
2022-07-27T02:24:19.229Z,99230.41
2022-07-27T02:25:21.498Z,99223.06
2022-07-27T02:26:24.420Z,99230.47
2022-07-27T02:27:26.849Z,99214.13
2022-07-27T02:28:29.124Z,99220.66
2022-07-27T02:29:31.449Z,99221.66
2022-07-27T02:30:33.813Z,99224.91
2022-07-27T02:31:36.086Z,99225.63
2022-07-27T02:32:40.621Z,99225.81
2022-07-27T02:33:46.780Z,99225.16
2022-07-27T02:34:49.036Z,99226.09
2022-07-27T02:35:51.403Z,99223.06
2022-07-27T02:36:53.626Z,99234.66
2022-07-27T02:37:55.895Z,99232.06
2022-07-27T02:38:58.390Z,99226.34
2022-07-27T02:40:00.636Z,99234.97
2022-07-27T02:41:02.967Z,99237.31
2022-07-27T02:42:06.765Z,99240.59
2022-07-27T02:43:09.013Z,99240.13
2022-07-27T02:44:11.303Z,99242.38
2022-07-27T02:45:15.131Z,99229.72
2022-07-27T02:46:17.563Z,99229.50
2022-07-27T02:47:19.908Z,99237.56
2022-07-27T02:48:22.165Z,99231.97
2022-07-27T02:49:24.530Z,99233.75
2022-07-27T02:50:26.878Z,99237.84
2022-07-27T02:51:29.626Z,99236.25
2022-07-27T02:52:31.868Z,99236.69
2022-07-27T02:53:34.146Z,99233.91
2022-07-27T02:54:36.420Z,99230.13
2022-07-27T02:55:38.788Z,99231.19
2022-07-27T02:56:41.012Z,99228.88
2022-07-27T02:57:43.285Z,99232.84
2022-07-27T02:58:45.548Z,99226.91
2022-07-27T02:59:47.762Z,99230.69
2022-07-27T03:00:52.568Z,99229.75
2022-07-27T03:01:57.312Z,99228.00
2022-07-27T03:02:59.537Z,99220.06
2022-07-27T03:04:01.798Z,99221.16
2022-07-27T03:05:05.552Z,99219.06
2022-07-27T03:06:08.767Z,99224.59
2022-07-27T03:07:11.081Z,99223.66
2022-07-27T03:08:13.439Z,99215.44
2022-07-27T03:09:15.835Z,99218.81
2022-07-27T03:10:18.492Z,99216.16
2022-07-27T03:11:20.937Z,99220.72
2022-07-27T03:12:23.404Z,99225.19
2022-07-27T03:13:26.533Z,99217.72
2022-07-27T03:14:28.821Z,99220.81
2022-07-27T03:15:32.942Z,99213.91
2022-07-27T03:16:35.299Z,99215.00
2022-07-27T03:17:37.556Z,99228.06
2022-07-27T03:18:39.827Z,99226.34
2022-07-27T03:19:42.124Z,99234.66
2022-07-27T03:20:44.371Z,99229.03
2022-07-27T03:21:47.056Z,99229.75
2022-07-27T03:22:49.328Z,99234.75
2022-07-27T03:23:51.579Z,99227.84
2022-07-27T03:24:53.806Z,99222.09
2022-07-27T03:25:56.295Z,99225.25
2022-07-27T03:26:58.551Z,99227.94
2022-07-27T03:28:04.194Z,99225.19
2022-07-27T03:29:06.772Z,99225.50
2022-07-27T03:30:09.361Z,99227.94
2022-07-27T03:31:11.761Z,99231.25
2022-07-27T03:32:14.013Z,99238.63
2022-07-27T03:33:16.808Z,99240.00
2022-07-27T03:34:19.150Z,99234.34
2022-07-27T03:35:21.631Z,99238.41
2022-07-27T03:36:23.859Z,99240.19
2022-07-27T03:37:26.163Z,99240.38
2022-07-27T03:38:28.784Z,99240.19
2022-07-27T03:39:31.057Z,99241.31
2022-07-27T03:40:33.552Z,99243.78
2022-07-27T03:41:35.848Z,99238.41
2022-07-27T03:42:38.177Z,99237.38
2022-07-27T03:43:40.443Z,99234.34
2022-07-27T03:44:43.387Z,99234.34
2022-07-27T03:45:45.740Z,99235.94
2022-07-27T03:46:48.084Z,99239.28
2022-07-27T03:47:50.406Z,99249.38
2022-07-27T03:48:52.741Z,99241.69
2022-07-27T03:49:55.036Z,99234.72
2022-07-27T03:50:57.266Z,99245.91
2022-07-27T03:51:59.527Z,99242.78
2022-07-27T03:53:02.107Z,99248.28
2022-07-27T03:54:04.415Z,99253.84
2022-07-27T03:55:07.428Z,99248.44
2022-07-27T03:56:09.690Z,99251.78
2022-07-27T03:57:11.995Z,99241.75
2022-07-27T03:58:14.291Z,99239.31
2022-07-27T03:59:16.547Z,99240.91
2022-07-27T04:00:19.371Z,99240.81
2022-07-27T04:01:21.795Z,99239.69
2022-07-27T04:02:24.174Z,99241.56
2022-07-27T04:03:26.543Z,99245.91
2022-07-27T04:04:28.867Z,99247.22
2022-07-27T04:05:31.389Z,99251.56
2022-07-27T04:06:34.029Z,99246.63
2022-07-27T04:07:36.325Z,99253.66
2022-07-27T04:08:39.782Z,99240.78
2022-07-27T04:09:42.051Z,99244.75
2022-07-27T04:10:47.502Z,99234.75
2022-07-27T04:11:50.878Z,99240.06
2022-07-27T04:12:53.892Z,99245.72
2022-07-27T04:13:56.308Z,99244.94
2022-07-27T04:14:58.569Z,99245.53
2022-07-27T04:16:00.942Z,99245.53
2022-07-27T04:17:03.516Z,99245.91
2022-07-27T04:18:05.988Z,99239.19
2022-07-27T04:19:08.926Z,99246.00
2022-07-27T04:20:11.607Z,99248.34
2022-07-27T04:21:16.025Z,99249.44
2022-07-27T04:22:18.299Z,99252.63
2022-07-27T04:23:20.572Z,99246.16
2022-07-27T04:24:23.361Z,99249.38
2022-07-27T04:25:25.722Z,99247.84
2022-07-27T04:26:28.453Z,99246.09
2022-07-27T04:27:30.762Z,99253.09
2022-07-27T04:28:33.040Z,99250.94
2022-07-27T04:29:35.316Z,99254.56
2022-07-27T04:30:37.625Z,99253.97
2022-07-27T04:31:40.053Z,99255.47
2022-07-27T04:32:42.328Z,99251.59
2022-07-27T04:33:44.559Z,99253.22
2022-07-27T04:34:47.223Z,99249.91
2022-07-27T04:35:49.779Z,99250.41
2022-07-27T04:36:52.062Z,99255.97
2022-07-27T04:37:58.706Z,99255.25
2022-07-27T04:39:01.885Z,99254.06
2022-07-27T04:40:04.876Z,99257.69
2022-07-27T04:41:07.098Z,99253.81
2022-07-27T04:42:09.418Z,99260.94
2022-07-27T04:43:11.674Z,99259.31
2022-07-27T04:44:14.750Z,99256.06
2022-07-27T04:45:17.192Z,99257.91
2022-07-27T04:46:19.553Z,99259.72
2022-07-27T04:47:22.032Z,99256.47
2022-07-27T04:48:24.300Z,99256.94
2022-07-27T04:49:26.593Z,99251.97
2022-07-27T04:50:28.896Z,99247.03
2022-07-27T04:51:35.316Z,99258.34
2022-07-27T04:52:37.621Z,99254.31
2022-07-27T04:53:53.425Z,99259.69
2022-07-27T04:55:00.377Z,99261.66
2022-07-27T04:56:03.762Z,99261.53
2022-07-27T04:57:05.953Z,99258.69
2022-07-27T04:58:08.277Z,99261.34
2022-07-27T04:59:11.583Z,99262.63
2022-07-27T05:00:14.307Z,99256.16
2022-07-27T05:01:16.582Z,99269.09
2022-07-27T05:02:18.830Z,99263.91
2022-07-27T05:03:21.103Z,99272.13
2022-07-27T05:04:23.499Z,99263.47
2022-07-27T05:05:25.908Z,99267.44
2022-07-27T05:06:28.262Z,99278.06
2022-07-27T05:07:30.897Z,99274.13
2022-07-27T05:08:33.777Z,99264.97
2022-07-27T05:09:36.766Z,99267.97
2022-07-27T05:10:39.583Z,99267.41
2022-07-27T05:11:41.863Z,99272.66
2022-07-27T05:12:53.903Z,99272.00
2022-07-27T05:13:56.270Z,99279.00
2022-07-27T05:14:58.508Z,99278.03
2022-07-27T05:16:00.806Z,99279.44
2022-07-27T05:17:04.426Z,99279.63
2022-07-27T05:18:08.731Z,99279.44
2022-07-27T05:19:12.495Z,99274.69
2022-07-27T05:20:16.148Z,99286.34
2022-07-27T05:21:18.413Z,99276.84
2022-07-27T05:22:20.730Z,99293.44
2022-07-27T05:23:23.094Z,99285.06
2022-07-27T05:24:25.780Z,99279.34
2022-07-27T05:25:28.221Z,99289.13
2022-07-27T05:26:30.930Z,99294.16
2022-07-27T05:27:33.906Z,99297.22
2022-07-27T05:28:36.233Z,99292.31
2022-07-27T05:29:39.083Z,99304.69
2022-07-27T05:30:41.458Z,99301.19
2022-07-27T05:31:43.767Z,99303.00
2022-07-27T05:32:46.553Z,99299.00
2022-07-27T05:33:51.345Z,99295.59
2022-07-27T05:34:56.329Z,99290.34
2022-07-27T05:35:59.261Z,99302.69
2022-07-27T05:37:01.908Z,99302.84
2022-07-27T05:38:05.175Z,99303.47
2022-07-27T05:39:13.274Z,99308.06
2022-07-27T05:40:16.468Z,99304.47
2022-07-27T05:41:26.743Z,99305.34
2022-07-27T05:42:30.268Z,99304.78
2022-07-27T05:43:33.399Z,99303.09
2022-07-27T05:44:36.274Z,99299.44
2022-07-27T05:45:38.951Z,99300.06
2022-07-27T05:46:41.377Z,99301.53
2022-07-27T05:47:44.136Z,99300.53
2022-07-27T05:48:46.777Z,99301.50
2022-07-27T05:49:49.385Z,99305.16
2022-07-27T05:50:52.668Z,99303.56
2022-07-27T05:51:55.862Z,99312.44
2022-07-27T05:53:00.562Z,99304.44
2022-07-27T05:54:03.238Z,99303.84
2022-07-27T05:55:06.542Z,99302.91
2022-07-27T05:56:09.204Z,99303.25
2022-07-27T05:57:11.861Z,99291.59
2022-07-27T05:58:14.603Z,99311.06
2022-07-27T05:59:17.548Z,99312.63
2022-07-27T06:00:20.685Z,99317.50
2022-07-27T06:01:23.548Z,99305.53
2022-07-27T06:02:27.345Z,99314.56
2022-07-27T06:03:29.939Z,99316.00
2022-07-27T06:04:32.700Z,99311.50
2022-07-27T06:05:35.453Z,99324.31
2022-07-27T06:06:56.229Z,99323.09
2022-07-27T06:08:08.764Z,99336.88
2022-07-27T06:09:11.382Z,99334.63
2022-07-27T06:10:14.222Z,99331.09
2022-07-27T06:11:16.808Z,99331.53
2022-07-27T06:12:19.644Z,99329.59
2022-07-27T06:13:26.642Z,99329.19
2022-07-27T06:14:30.629Z,99331.47
2022-07-27T06:15:33.646Z,99324.69
2022-07-27T06:16:36.430Z,99330.97
2022-07-27T06:17:40.573Z,99328.59
2022-07-27T06:18:43.373Z,99341.53
2022-07-27T06:19:45.768Z,99336.69
2022-07-27T06:20:48.235Z,99332.53
2022-07-27T06:21:53.855Z,99344.19
2022-07-27T06:23:08.077Z,99344.59
2022-07-27T06:24:11.503Z,99351.03
2022-07-27T06:25:13.993Z,99347.41
2022-07-27T06:26:16.329Z,99348.75
2022-07-27T06:27:18.601Z,99352.91
2022-07-27T06:28:21.430Z,99343.78
2022-07-27T06:29:23.687Z,99349.59
2022-07-27T06:30:26.013Z,99345.25
2022-07-27T06:31:30.089Z,99348.88
2022-07-27T06:32:38.848Z,99347.28
2022-07-27T06:33:41.977Z,99326.47
2022-07-27T06:34:47.879Z,99345.72
2022-07-27T06:35:50.207Z,99341.47
2022-07-27T06:36:56.993Z,99345.25
2022-07-27T06:37:59.427Z,99329.50
2022-07-27T06:39:01.779Z,99330.09
2022-07-27T06:40:05.389Z,99351.25
2022-07-27T06:41:07.741Z,99332.13
2022-07-27T06:42:10.040Z,99339.66
2022-07-27T06:43:12.348Z,99342.28
2022-07-27T06:44:15.223Z,99341.47
2022-07-27T06:45:17.740Z,99334.16
2022-07-27T06:46:20.125Z,99323.25
2022-07-27T06:47:27.150Z,99324.38
2022-07-27T06:48:31.395Z,99323.09
2022-07-27T06:49:33.892Z,99326.13
2022-07-27T06:50:36.250Z,99322.16
2022-07-27T06:51:39.330Z,99321.19
2022-07-27T06:52:45.082Z,99321.53
2022-07-27T06:53:48.304Z,99297.34
2022-07-27T06:54:51.946Z,99299.47
2022-07-27T06:55:59.491Z,99311.31
2022-07-27T06:57:03.336Z,99317.59
2022-07-27T06:58:06.125Z,99316.41
2022-07-27T06:59:08.856Z,99310.03
2022-07-27T07:00:13.025Z,99332.19
2022-07-27T07:01:19.381Z,99340.03
2022-07-27T07:02:22.160Z,99324.84
2022-07-27T07:03:24.995Z,99330.50
2022-07-27T07:04:27.353Z,99331.06
2022-07-27T07:05:32.146Z,99332.75
2022-07-27T07:06:35.004Z,99331.84
2022-07-27T07:07:37.551Z,99332.50
2022-07-27T07:08:40.384Z,99330.47
2022-07-27T07:09:43.023Z,99326.34
2022-07-27T07:10:46.595Z,99334.09
2022-07-27T07:11:49.197Z,99333.94
2022-07-27T07:12:55.686Z,99328.19
2022-07-27T07:13:58.719Z,99327.63
2022-07-27T07:15:01.624Z,99335.31
2022-07-27T07:16:04.379Z,99335.94
2022-07-27T07:17:06.746Z,99331.38
2022-07-27T07:18:10.905Z,99341.34
2022-07-27T07:19:13.843Z,99344.97
2022-07-27T07:20:16.677Z,99344.75
2022-07-27T07:21:19.085Z,99339.31
2022-07-27T07:22:21.403Z,99345.00
2022-07-27T07:23:23.722Z,99347.38
2022-07-27T07:24:26.155Z,99352.25
2022-07-27T07:25:28.669Z,99348.31
2022-07-27T07:26:32.846Z,99336.28
2022-07-27T07:27:35.313Z,99351.81
2022-07-27T07:28:37.617Z,99345.25
2022-07-27T07:29:40.045Z,99356.34
2022-07-27T07:30:42.747Z,99358.66
2022-07-27T07:31:45.165Z,99357.13
2022-07-27T07:32:47.908Z,99357.03
2022-07-27T07:33:50.314Z,99360.88
2022-07-27T07:34:53.125Z,99348.00
2022-07-27T07:36:13.416Z,99350.50
2022-07-27T07:37:17.496Z,99353.41
2022-07-27T07:38:22.743Z,99344.31
2022-07-27T07:39:31.202Z,99347.00
2022-07-27T07:40:43.881Z,99345.00
2022-07-27T07:41:48.268Z,99344.69
2022-07-27T07:42:56.597Z,99338.00
2022-07-27T07:43:58.930Z,99340.09
2022-07-27T07:45:01.275Z,99352.97
2022-07-27T07:46:03.711Z,99346.22
2022-07-27T07:47:06.813Z,99348.22
2022-07-27T07:48:11.299Z,99352.75
2022-07-27T07:49:14.172Z,99344.22
2022-07-27T07:50:17.636Z,99345.44
2022-07-27T07:51:20.033Z,99341.66
2022-07-27T07:52:22.327Z,99342.97
2022-07-27T07:53:25.159Z,99335.44
2022-07-27T07:54:27.767Z,99340.41
2022-07-27T07:55:30.392Z,99330.06
2022-07-27T07:56:33.301Z,99339.25
2022-07-27T07:57:35.854Z,99334.38
2022-07-27T07:58:39.170Z,99334.09
2022-07-27T07:59:41.526Z,99339.75
2022-07-27T08:00:44.324Z,99335.84
2022-07-27T08:01:46.834Z,99331.44
2022-07-27T08:02:55.625Z,99341.13
2022-07-27T08:03:58.101Z,99340.69
2022-07-27T08:05:00.599Z,99339.84
2022-07-27T08:06:03.103Z,99337.59
2022-07-27T08:07:06.265Z,99343.13
2022-07-27T08:08:08.783Z,99337.41
2022-07-27T08:09:13.255Z,99339.91
2022-07-27T08:10:17.350Z,99338.94
2022-07-27T08:11:21.328Z,99338.72
2022-07-27T08:12:23.723Z,99338.13
2022-07-27T08:13:26.254Z,99335.44
2022-07-27T08:14:28.585Z,99335.75
2022-07-27T08:15:35.200Z,99337.56
2022-07-27T08:16:39.140Z,99350.09
2022-07-27T08:17:43.178Z,99344.72
2022-07-27T08:18:45.501Z,99340.44
2022-07-27T08:19:47.779Z,99342.41
2022-07-27T08:20:50.374Z,99339.00
2022-07-27T08:21:52.876Z,99338.25
2022-07-27T08:22:55.621Z,99335.81
2022-07-27T08:23:58.677Z,99340.25
2022-07-27T08:25:05.235Z,99338.66
2022-07-27T08:26:08.385Z,99332.47
2022-07-27T08:27:10.749Z,99330.72
2022-07-27T08:28:13.150Z,99328.38
2022-07-27T08:29:15.929Z,99334.44
2022-07-27T08:30:18.766Z,99337.69
2022-07-27T08:31:26.526Z,99331.34
2022-07-27T08:33:01.263Z,99343.91
2022-07-27T08:34:03.953Z,99340.25
2022-07-27T08:35:06.549Z,99342.47
2022-07-27T08:36:08.792Z,99343.31
2022-07-27T08:37:15.361Z,99333.75
2022-07-27T08:38:18.367Z,99333.84
2022-07-27T08:40:05.787Z,99339.94
2022-07-27T08:40:45.347Z,99335.41
2022-07-27T08:41:50.707Z,99337.16
2022-07-27T08:42:53.136Z,99329.38
2022-07-27T08:43:57.990Z,99330.03
2022-07-27T08:45:00.661Z,99330.91
2022-07-27T08:46:03.078Z,99338.25
2022-07-27T08:47:05.640Z,99326.09
2022-07-27T08:48:12.624Z,99336.38
2022-07-27T08:49:17.859Z,99330.50
2022-07-27T08:50:24.807Z,99326.09
2022-07-27T08:52:30.031Z,99328.63
2022-07-27T08:54:01.868Z,99325.66
2022-07-27T08:55:04.514Z,99325.84
2022-07-27T08:56:06.985Z,99324.66
2022-07-27T08:57:09.862Z,99329.44
2022-07-27T08:58:13.576Z,99327.09
2022-07-27T08:59:16.405Z,99311.81
2022-07-27T09:00:19.810Z,99324.69
2022-07-27T09:01:22.793Z,99319.81
2022-07-27T09:02:25.572Z,99338.88
2022-07-27T09:03:31.227Z,99326.69
2022-07-27T09:04:33.671Z,99330.34
2022-07-27T09:05:43.371Z,99320.03
2022-07-27T09:06:54.206Z,99326.25
2022-07-27T09:08:21.525Z,99326.72
2022-07-27T09:09:24.116Z,99330.88
2022-07-27T09:10:35.224Z,99334.72
2022-07-27T09:11:38.107Z,99325.19
2022-07-27T09:12:40.410Z,99317.19
2022-07-27T09:13:42.797Z,99326.47
2022-07-27T09:14:47.596Z,99333.81
2022-07-27T09:18:47.734Z,99326.47
2022-07-27T09:19:55.325Z,99316.50
2022-07-27T09:21:21.373Z,99320.00
2022-07-27T09:22:50.759Z,99327.34
2022-07-27T09:24:17.845Z,99318.78
2022-07-27T09:26:01.597Z,99319.91
2022-07-27T09:27:03.804Z,99316.75
2022-07-27T09:28:06.295Z,99316.91
2022-07-27T09:29:14.930Z,99313.31
2022-07-27T09:30:19.309Z,99320.88
2022-07-27T09:31:22.165Z,99316.66
2022-07-27T09:32:24.869Z,99315.66
2022-07-27T09:33:27.462Z,99322.75
2022-07-27T09:34:35.283Z,99312.50
2022-07-27T09:35:38.113Z,99313.28
2022-07-27T09:36:55.446Z,99322.50
2022-07-27T09:38:17.398Z,99320.06
2022-07-27T09:39:22.670Z,99320.09
2022-07-27T09:40:25.993Z,99321.47
2022-07-27T09:41:42.711Z,99324.03
2022-07-27T09:43:07.427Z,99324.78
2022-07-27T09:44:31.232Z,99322.94
2022-07-27T09:45:34.739Z,99325.56
2022-07-27T09:46:43.293Z,99319.63
2022-07-27T09:47:48.711Z,99329.91
2022-07-27T09:48:51.416Z,99326.91
2022-07-27T09:50:16.301Z,99323.91
2022-07-27T09:51:58.460Z,99330.75
2022-07-27T09:53:41.731Z,99336.00
2022-07-27T09:54:47.490Z,99328.72
2022-07-27T09:56:10.814Z,99328.13
2022-07-27T09:57:13.226Z,99329.84
2022-07-27T09:58:16.034Z,99329.72
2022-07-27T09:59:19.500Z,99334.09
2022-07-27T10:00:22.629Z,99329.47
2022-07-27T10:01:33.059Z,99327.28
2022-07-27T10:02:35.688Z,99331.34
2022-07-27T10:03:40.749Z,99316.16
2022-07-27T10:04:44.167Z,99329.38
2022-07-27T10:05:46.978Z,99330.63
2022-07-27T10:07:02.102Z,99320.78
2022-07-27T10:08:05.595Z,99329.47
2022-07-27T10:09:08.317Z,99322.41
2022-07-27T10:10:14.565Z,99324.69
2022-07-27T10:11:18.785Z,99328.81
2022-07-27T10:12:21.638Z,99317.78
2022-07-27T10:13:26.506Z,99318.38
2022-07-27T10:14:29.042Z,99316.16
2022-07-27T10:15:32.217Z,99309.88
2022-07-27T10:16:35.958Z,99319.25
2022-07-27T10:17:44.135Z,99306.94
2022-07-27T10:19:08.099Z,99312.69
2022-07-27T10:20:14.221Z,99315.50
2022-07-27T10:21:17.049Z,99313.31
2022-07-27T10:22:51.818Z,99325.28
2022-07-27T10:23:58.605Z,99318.50
2022-07-27T10:25:01.037Z,99324.94
2022-07-27T10:26:27.216Z,99323.91
2022-07-27T10:27:32.790Z,99326.19
2022-07-27T10:28:58.829Z,99324.63
2022-07-27T10:30:05.474Z,99316.84
2022-07-27T10:31:18.979Z,99313.66
2022-07-27T10:32:24.351Z,99318.81
2022-07-27T10:33:43.450Z,99314.22
2022-07-27T10:34:45.669Z,99325.47
2022-07-27T10:35:48.002Z,99313.63
2022-07-27T10:36:53.010Z,99319.06
2022-07-27T10:38:08.771Z,99309.19
2022-07-27T10:39:11.043Z,99308.97
2022-07-27T10:40:34.419Z,99318.09
2022-07-27T10:41:40.623Z,99324.03
2022-07-27T10:42:47.973Z,99316.06
2022-07-27T10:44:21.377Z,99321.06
2022-07-27T10:45:23.787Z,99315.44
2022-07-27T10:46:26.070Z,99318.56
2022-07-27T10:47:52.764Z,99311.66
2022-07-27T10:49:17.072Z,99320.41
2022-07-27T10:50:22.225Z,99317.25
2022-07-27T10:51:36.581Z,99313.47
2022-07-27T10:52:44.275Z,99309.38
2022-07-27T10:54:11.802Z,99318.28
2022-07-27T10:55:35.317Z,99317.25
2022-07-27T10:56:48.290Z,99316.19
2022-07-27T10:57:50.586Z,99319.53
2022-07-27T10:58:52.859Z,99311.44
2022-07-27T11:00:08.498Z,99325.47
2022-07-27T11:01:14.743Z,99312.63
2022-07-27T11:02:36.373Z,99328.19
2022-07-27T11:03:42.685Z,99324.03
2022-07-27T11:04:51.151Z,99324.88
2022-07-27T11:06:31.543Z,99327.22
2022-07-27T11:07:39.659Z,99327.88
2022-07-27T11:09:01.734Z,99330.94
2022-07-27T11:10:10.794Z,99320.47
2022-07-27T11:11:19.496Z,99318.03
2022-07-27T11:12:27.609Z,99312.97
2022-07-27T11:13:38.617Z,99311.44
2022-07-27T11:14:49.366Z,99315.84
2022-07-27T11:16:22.878Z,99312.78
2022-07-27T11:19:12.202Z,99310.38
2022-07-27T11:20:14.695Z,99317.19
2022-07-27T11:21:25.816Z,99313.44
2022-07-27T11:24:24.798Z,99313.16
2022-07-27T11:25:27.121Z,99310.25
2022-07-27T11:26:36.393Z,99315.06
2022-07-27T11:28:09.125Z,99310.53
2022-07-27T11:29:13.664Z,99308.75
2022-07-27T11:30:24.890Z,99309.00
2022-07-27T11:31:53.029Z,99309.81
2022-07-27T11:32:49.632Z,99306.44
2022-07-27T11:33:58.090Z,99303.34
2022-07-27T11:35:16.362Z,99297.13
2022-07-27T11:36:23.680Z,99306.41
2022-07-27T11:37:25.966Z,99304.97
2022-07-27T11:38:28.519Z,99314.41
2022-07-27T11:39:59.806Z,99306.66
2022-07-27T11:41:07.032Z,99306.59
2022-07-27T11:42:21.093Z,99298.88
2022-07-27T11:43:45.265Z,99289.19
2022-07-27T11:44:48.183Z,99301.22
2022-07-27T11:45:50.547Z,99291.91
2022-07-27T11:46:56.322Z,99294.19
2022-07-27T11:48:02.140Z,99293.66
2022-07-27T11:49:09.991Z,99288.44
2022-07-27T11:50:14.251Z,99287.31
2022-07-27T11:51:17.226Z,99287.41
2022-07-27T11:52:19.568Z,99292.19
2022-07-27T11:53:22.162Z,99287.22
2022-07-27T11:54:27.239Z,99293.22
2022-07-27T11:55:29.676Z,99291.59
2022-07-27T11:56:34.183Z,99294.25
2022-07-27T11:57:36.567Z,99300.00
2022-07-27T11:59:02.562Z,99295.38
2022-07-27T12:00:05.954Z,99297.97
2022-07-27T12:01:27.060Z,99290.47
2022-07-27T12:02:29.803Z,99293.59
2022-07-27T12:03:46.957Z,99287.84
2022-07-27T12:04:51.992Z,99288.03
2022-07-27T12:05:58.404Z,99283.63
2022-07-27T12:07:00.673Z,99290.56
2022-07-27T12:08:02.945Z,99290.91
2022-07-27T12:09:07.933Z,99279.41
2022-07-27T12:10:11.177Z,99286.53
2022-07-27T12:11:13.401Z,99286.19
2022-07-27T12:12:23.560Z,99275.81
2022-07-27T12:13:36.287Z,99275.44
2022-07-27T12:14:42.081Z,99281.72
2022-07-27T12:15:46.589Z,99283.22
2022-07-27T12:16:49.354Z,99275.72
2022-07-27T12:17:57.234Z,99276.31
2022-07-27T12:18:59.620Z,99280.16
2022-07-27T12:20:05.292Z,99285.16
2022-07-27T12:21:18.144Z,99284.22
2022-07-27T12:22:28.309Z,99277.31
2022-07-27T12:23:30.699Z,99283.66
2022-07-27T12:24:35.310Z,99288.94
2022-07-27T12:25:38.919Z,99287.34
2022-07-27T12:26:41.302Z,99285.06
2022-07-27T12:28:07.371Z,99285.19
2022-07-27T12:29:12.421Z,99285.22
2022-07-27T12:30:16.566Z,99281.59
2022-07-27T12:31:19.137Z,99280.75
2022-07-27T12:32:21.781Z,99279.06
2022-07-27T12:33:32.685Z,99289.63
2022-07-27T12:34:36.004Z,99280.03
2022-07-27T12:35:47.100Z,99274.16
2022-07-27T12:36:49.518Z,99276.53
2022-07-27T12:38:03.532Z,99276.94
2022-07-27T12:39:05.786Z,99282.19
2022-07-27T12:40:15.931Z,99274.31
2022-07-27T12:41:29.856Z,99282.53
2022-07-27T12:42:34.691Z,99286.84
2022-07-27T12:43:37.512Z,99272.03
2022-07-27T12:44:42.338Z,99281.59
2022-07-27T12:45:46.035Z,99278.72
2022-07-27T12:46:52.525Z,99281.66
2022-07-27T12:48:04.909Z,99281.59
2022-07-27T12:49:15.977Z,99287.69
2022-07-27T12:50:27.802Z,99279.09
2022-07-27T12:51:30.266Z,99269.16
2022-07-27T12:52:34.555Z,99277.72
2022-07-27T12:53:37.811Z,99280.78